Mullan Pass, ID

11:08 AM PDT on September 20, 2014 (GMT -0700)
Sandpoint | Change Station
CLOSE
Current Station
Airport
Location: Sandpoint,
Elevation: 2126 ft
Nearby Weather Stations
Active Advisory: Air Quality Alert

Elev 2126 ft 48.30 °N, 116.56 °W | Updated 13 minutes ago

Clear
Clear
68 °F
Feels Like 68 °F
N
9
Wind Variable Wind from NNE

Today
High -- | Low -- °F
--% Chance of Precip.
Yesterday
High -- | Low -- °F
Precip. -- in
6:26 AM 6:44 PM
Waning Crescent, 11% visible
Pressure 30.21 in
Visibility 10.0 miles
Clouds Clear
Dew Point 50 °F
Humidity 52%
Rainfall 0.00 in
Snow Depth 0 in , 1 in , 0 in
UV 5 out of 12
Pollen 7.80 out of 12
Air Quality Not available.
Flu Activity Not available.
METAR KSZT 201755Z AUTO 03008KT 10SM CLR 20/10 A3021 RMK AO2

More Conditions Fewer Conditions

Pressure 30.21 in
Visibility 10.0 miles
Clouds Clear
Dew Point 50 °F
Humidity 52%
Rainfall 0.00 in
Snow Depth 0 in , 1 in , 0 in
UV 5 out of 12
Pollen 7.80 out of 12
Air Quality Not available.
Flu Activity Not available.
METAR KSZT 201755Z AUTO 03008KT 10SM CLR 20/10 A3021 RMK AO2

More Conditions Fewer Conditions

10-Day Weather Forecast

Almanac

Astronomy

Sep. 20, 2014 Rise Set
Actual Time 6:26 AM PDT 6:44 PM PDT
Civil Twilight 5:56 AM PDT 7:15 PM PDT
Nautical Twilight 5:19 AM PDT 7:51 PM PDT
Astronomical Twilight 4:42 AM PDT 8:28 PM PDT
Moon 2:59 AM PDT 4:59 PM PDT
Length of Visible Light 13h 18m
Length of Day
12h 17m
Tomorrow will be 3m 24s shorter.
Waning Crescent, 11% of the Moon is Illuminated
Today
Waning Crescent
Sep 24
New
Oct 1
First Quarter
Oct 8
Full
Oct 15
Last Quarter

Today's Extremes

State Highs State Lows

Community

WunderPhotos

Upload Photos

1,754,921 photos uploaded!

WunderBlogs® & News

Nearby

Snow Depth

Station Depth Elevation
Crater Meadows 0 in 5960 ft
Lost-Wood Divide 1 in 7900 ft
Mud Flat 0 in 5730 ft
Wilson Creek 0 in 7120 ft
Hemlock Butte 0 in 5810 ft

Earthquake Activity

City Distance Mag. Time & Date
No recent earthquake activity has been reported nearby.
Minimum magnitude displayed is 2.5.

Coastal Water Temperatures

Place Temperature
No Stations Reporting

Nearby Weather Stations